North Springfield, VT (05150)

10:53 AM EST on February 10, 2016 (GMT -0500)
Gassetts / North Springfield | | Change Station
CLOSE
Current Station
Personal Weather Station
Location: Chester, VT
Elevation: 594 ft
Nearby Weather Stations

Elev 594 ft 43.34 °N, 72.55 °W | Updated 7 seconds ago

Light Snow
Light Snow
32.9 °F
Feels Like 33 °F
N
0.7
Wind Variable Wind from SE
Gusts 3.1 mph

Today
High -- | Low -- °F
--% Chance of Precip.
Yesterday
High -- | Low -- °F
Precip. -- in
Pressure 29.56 in
Visibility 1.5 miles
Clouds Mostly Cloudy 2900 ft
Overcast 3600 ft
Windchill 33 °F
Dew Point 30 °F
Humidity 87%
Rainfall 0.00 in
Snow Depth Not available.
6:55 AM 5:13 PM
Waxing Crescent, 6% visible
SPECI KVSF 101542Z AUTO 00000KT 1 1/2SM -SN BKN029 OVC036 M03/M06 A2956 RMK AO2 P0000 T10331061
Pressure 29.56 in
Visibility 1.5 miles
Clouds Mostly Cloudy 2900 ft
Overcast 3600 ft
Windchill 33 °F
Dew Point 30 °F
Humidity 87%
Rainfall 0.00 in
Snow Depth Not available.
6:55 AM 5:13 PM
Waxing Crescent, 6% visible
SPECI KVSF 101542Z AUTO 00000KT 1 1/2SM -SN BKN029 OVC036 M03/M06 A2956 RMK AO2 P0000 T10331061

10-Day Weather Forecast

Almanac

Astronomy

Feb. 10, 2016 Rise Set
Actual Time
Civil Twilight
Nautical Twilight
Astronomical Twilight
Moon
Length of Visible Light
Length of Day
Tomorrow will be .
, % of the Moon is Illuminated

Today's Extremes

State Highs State Lows

Community

WunderPhotos

Upload Photos

1,891,863 photos uploaded!

WunderBlog® & News

Nearby

Air Quality

  Air Quality AQ Index Pollutant
Not available.

Snow Depth

Station Depth Elevation

Earthquake Activity

City Distance Mag. Time & Date
Minimum magnitude displayed is 2.5.

Coastal Water Temperatures

Place Temperature

Stations

Nearby Weather Stations

Station Location Temp. Windchill Dew Point Humidity Wind Precip. Elev Updated Type
                   

Watches & Warnings

There are currently no watches in effect.